Time;durP1;ratioP1;P1;durP2;ratioP2;P2;SDS_P1;SDS_P2;PMS_P1;PMS_P2;Temp;Humidity;BMP_temperature;BMP_pressure;BME280_temperature;BME280_humidity;BME280_pressure;Samples;Min_cycle;Max_cycle;Signal;HPM_P1;HPM_P2
2023/07/01 00:02:07;;;;;;;7.07;2.33;;;;;;;21.01;42.88;100689.38;6501825;22;20066;-80
2023/07/01 00:04:40;;;;;;;7.13;2.97;;;;;;;21.02;42.89;100683.06;6496469;23;20079;-75
2023/07/01 00:07:12;;;;;;;10.02;2.35;;;;;;;20.92;43.69;100679.69;6496721;22;20011;-82
2023/07/01 00:09:43;;;;;;;5.40;2.13;;;;;;;20.96;43.60;100675.75;6494825;22;20008;-76
2023/07/01 00:12:14;;;;;;;5.50;2.17;;;;;;;20.93;43.82;100676.00;6494840;22;20008;-82
2023/07/01 00:14:46;;;;;;;4.07;2.23;;;;;;;20.90;44.06;100665.69;6520256;22;20095;-81
2023/07/01 00:17:18;;;;;;;4.23;2.07;;;;;;;20.98;43.87;100665.72;6496100;22;20107;-82
2023/07/01 00:19:49;;;;;;;3.73;1.57;;;;;;;20.88;44.31;100657.03;6496528;22;20005;-82
2023/07/01 00:22:21;;;;;;;6.97;2.70;;;;;;;20.91;44.39;100657.53;6496433;22;20497;-82
2023/07/01 00:24:52;;;;;;;3.83;1.63;;;;;;;20.83;44.73;100651.38;6495839;22;20024;-82
2023/07/01 00:27:23;;;;;;;5.30;2.10;;;;;;;20.94;44.62;100651.09;6496424;22;20083;-76
2023/07/01 00:29:54;;;;;;;5.93;1.80;;;;;;;20.80;45.06;100650.72;6495926;23;20004;-82
2023/07/01 00:32:26;;;;;;;6.77;1.97;;;;;;;20.90;44.51;100649.72;6520130;22;20433;-81
2023/07/01 00:34:57;;;;;;;8.70;1.87;;;;;;;20.77;44.81;100629.75;6519998;22;20004;-81
2023/07/01 00:37:30;;;;;;;4.60;1.97;;;;;;;20.72;45.64;100634.75;6495716;23;20010;-82
2023/07/01 00:40:03;;;;;;;4.43;2.30;;;;;;;20.88;44.79;100628.59;6493563;22;20031;-81
2023/07/01 00:42:34;;;;;;;7.43;2.70;;;;;;;20.82;45.69;100623.97;6496399;22;20004;-82
2023/07/01 00:45:06;;;;;;;6.87;2.07;;;;;;;20.85;45.39;100618.31;6520553;22;20011;-82
2023/07/01 00:47:41;;;;;;;4.83;1.93;;;;;;;20.67;46.06;100615.78;6496009;22;20011;-80
2023/07/01 00:50:13;;;;;;;6.50;2.13;;;;;;;20.60;46.34;100617.44;6496823;22;20007;-82
2023/07/01 00:52:46;;;;;;;4.20;1.77;;;;;;;20.69;46.58;100616.44;6493775;23;20007;-82
2023/07/01 00:55:18;;;;;;;13.03;2.80;;;;;;;20.70;46.69;100618.09;6497137;22;20014;-81
2023/07/01 00:57:49;;;;;;;5.37;2.00;;;;;;;20.59;47.46;100611.28;6521209;22;20095;-76
2023/07/01 01:00:20;;;;;;;7.33;2.40;;;;;;;20.49;48.92;100611.44;6499100;22;20001;-81
2023/07/01 01:03:14;;;;;;;4.50;1.83;;;;;;;20.68;48.12;100609.47;6498205;22;20016;-82
2023/07/01 01:06:25;;;;;;;6.57;2.10;;;;;;;20.71;48.54;100606.47;6497704;23;20004;-82
2023/07/01 01:09:19;;;;;;;7.20;2.60;;;;;;;20.60;48.81;100612.09;6494342;22;20364;-76
2023/07/01 01:11:53;;;;;;;6.07;2.20;;;;;;;20.41;49.38;100598.13;6470548;23;20011;-81
2023/07/01 01:14:26;;;;;;;4.83;2.17;;;;;;;20.44;49.85;100603.09;6496670;23;20008;-81
2023/07/01 01:16:58;;;;;;;4.80;1.83;;;;;;;20.40;50.09;100596.47;6497780;23;20329;-81
2023/07/01 01:19:44;;;;;;;5.50;2.70;;;;;;;20.51;49.76;100590.81;6496947;23;20011;-82
2023/07/01 01:22:40;;;;;;;7.97;2.27;;;;;;;20.61;49.54;100587.19;6471372;23;20007;-82
2023/07/01 01:25:23;;;;;;;5.20;2.07;;;;;;;20.35;51.22;100578.31;6496127;23;20007;-80
2023/07/01 01:27:58;;;;;;;7.05;2.15;;;;;;;20.41;51.67;100579.50;6497418;23;20071;-81
2023/07/01 01:30:31;;;;;;;9.23;2.10;;;;;;;20.27;52.96;100568.50;6497617;23;20379;-81
2023/07/01 01:33:03;;;;;;;4.53;2.00;;;;;;;20.37;52.78;100575.53;6498029;23;20083;-81
2023/07/01 01:35:34;;;;;;;8.07;2.27;;;;;;;20.26;54.71;100569.53;6498414;23;20081;-82
2023/07/01 01:38:10;;;;;;;4.10;1.90;;;;;;;20.34;55.92;100573.16;6498176;23;20000;-79
2023/07/01 01:40:52;;;;;;;5.47;3.13;;;;;;;20.26;57.32;100566.03;6495992;23;20000;-78
2023/07/01 01:43:30;;;;;;;8.83;2.50;;;;;;;20.28;58.66;100572.81;6497663;23;20007;-81
2023/07/01 01:46:02;;;;;;;9.40;2.33;;;;;;;20.05;59.38;100552.19;6497596;23;20027;-79
2023/07/01 01:48:36;;;;;;;5.37;2.80;;;;;;;20.05;60.09;100556.66;6497985;23;20000;-74
2023/07/01 01:51:08;;;;;;;7.88;3.08;;;;;;;20.06;61.07;100556.50;6497728;23;20035;-74
2023/07/01 01:53:41;;;;;;;8.53;2.60;;;;;;;20.01;60.71;100557.94;6498353;23;20008;-74
2023/07/01 01:56:13;;;;;;;8.97;2.30;;;;;;;19.97;61.15;100553.97;6470314;23;20420;-77
2023/07/01 01:58:47;;;;;;;7.23;2.70;;;;;;;20.10;60.58;100558.84;6471917;23;20032;-75
2023/07/01 02:01:18;;;;;;;7.25;2.92;;;;;;;19.92;60.98;100549.13;6472742;23;20425;-72
2023/07/01 02:03:50;;;;;;;3.97;2.00;;;;;;;19.85;61.56;100542.78;6498232;23;20007;-74
2023/07/01 02:06:21;;;;;;;6.73;2.20;;;;;;;19.97;61.04;100549.47;6498397;23;20451;-72
2023/07/01 02:08:52;;;;;;;8.17;2.50;;;;;;;19.86;62.05;100557.75;6496985;23;20113;-74
2023/07/01 02:11:24;;;;;;;5.23;2.30;;;;;;;19.77;62.31;100549.75;6471437;23;20031;-74
2023/07/01 02:13:55;;;;;;;8.40;2.33;;;;;;;19.78;62.67;100551.41;6498358;23;20012;-73
2023/07/01 02:16:27;;;;;;;7.23;2.67;;;;;;;19.93;62.38;100545.47;6498025;23;20026;-74
2023/07/01 02:18:58;;;;;;;8.37;2.53;;;;;;;19.82;63.13;100539.47;6497279;23;20008;-71
2023/07/01 02:21:30;;;;;;;7.47;2.73;;;;;;;19.68;63.66;100532.94;6497365;23;20421;-72
2023/07/01 02:24:01;;;;;;;7.47;2.37;;;;;;;19.76;64.06;100531.31;6499055;23;20000;-73
2023/07/01 02:26:33;;;;;;;9.00;2.83;;;;;;;19.80;63.81;100527.31;6499932;23;20000;-74
2023/07/01 02:29:04;;;;;;;9.07;2.40;;;;;;;19.67;65.12;100514.50;6500618;23;20083;-72
2023/07/01 02:31:35;;;;;;;6.13;2.63;;;;;;;19.64;66.15;100528.09;6500045;23;20425;-72
2023/07/01 02:34:07;;;;;;;5.70;2.10;;;;;;;19.65;68.10;100527.94;6499407;23;20115;-74
2023/07/01 02:36:43;;;;;;;7.57;2.30;;;;;;;19.59;74.50;100521.44;6472089;23;20146;-73
2023/07/01 02:39:14;;;;;;;6.23;2.37;;;;;;;19.45;77.95;100514.06;6497089;23;20036;-75
2023/07/01 02:41:46;;;;;;;7.20;2.80;;;;;;;19.39;79.56;100517.38;6498068;23;20070;-76
2023/07/01 02:44:17;;;;;;;8.20;2.13;;;;;;;19.34;82.05;100515.16;6472198;23;20054;-72
2023/07/01 02:46:48;;;;;;;7.00;2.50;;;;;;;19.29;84.38;100510.34;6495220;23;20004;-78
2023/07/01 02:49:20;;;;;;;5.20;1.90;;;;;;;19.29;84.81;100510.34;6497408;23;20040;-77
2023/07/01 02:51:51;;;;;;;4.93;1.90;;;;;;;19.13;88.06;100505.75;6497784;23;20011;-77
2023/07/01 02:54:23;;;;;;;3.27;1.57;;;;;;;19.12;88.53;100508.59;6494658;23;20004;-77
2023/07/01 02:56:54;;;;;;;5.13;2.23;;;;;;;19.04;90.11;100509.34;6470643;23;20008;-77
2023/07/01 02:59:25;;;;;;;3.83;1.87;;;;;;;18.99;91.52;100515.94;6471683;23;20057;-76
2023/07/01 03:01:57;;;;;;;5.47;1.90;;;;;;;18.98;92.12;100508.16;6496818;23;20460;-76
2023/07/01 03:04:28;;;;;;;2.93;1.63;;;;;;;18.92;93.21;100511.44;6498070;23;20428;-76
2023/07/01 03:06:59;;;;;;;4.00;1.80;;;;;;;18.99;93.27;100493.88;6497953;23;20079;-76
2023/07/01 03:09:31;;;;;;;7.27;3.03;;;;;;;18.98;93.72;100493.06;6495900;23;20440;-77
2023/07/01 03:12:03;;;;;;;5.53;2.00;;;;;;;18.97;94.22;100495.88;6471346;23;20000;-77
2023/07/01 03:14:34;;;;;;;3.93;2.00;;;;;;;18.96;96.55;100495.03;6470947;23;20004;-77
2023/07/01 03:17:05;;;;;;;4.47;1.90;;;;;;;18.95;97.11;100500.50;6497864;23;20614;-77
2023/07/01 03:19:37;;;;;;;6.10;2.13;;;;;;;18.89;100.00;100487.84;6497206;23;20433;-77
2023/07/01 03:22:08;;;;;;;6.83;2.13;;;;;;;18.92;99.54;100487.56;6497380;23;20007;-78
2023/07/01 03:24:39;;;;;;;3.93;2.23;;;;;;;18.93;99.54;100474.13;6496414;23;20038;-76
2023/07/01 03:27:10;;;;;;;5.37;2.20;;;;;;;18.81;100.00;100481.50;6496050;23;20000;-76
2023/07/01 03:29:42;;;;;;;3.77;2.33;;;;;;;18.73;100.00;100469.00;6497167;23;20333;-75
2023/07/01 03:32:13;;;;;;;6.83;2.50;;;;;;;18.80;100.00;100463.91;6497432;23;20000;-76
2023/07/01 03:34:44;;;;;;;4.10;2.33;;;;;;;18.92;99.10;100471.63;6497118;23;20000;-77
2023/07/01 03:37:15;;;;;;;6.33;2.20;;;;;;;18.70;100.00;100469.34;6497671;23;20807;-77
2023/07/01 03:39:47;;;;;;;3.17;1.73;;;;;;;18.81;100.00;100476.22;6495708;23;20012;-77
2023/07/01 03:42:18;;;;;;;6.17;2.33;;;;;;;18.64;100.00;100459.31;6497386;23;20079;-76
2023/07/01 03:44:50;;;;;;;6.67;2.53;;;;;;;18.64;100.00;100458.50;6497360;23;20470;-76
2023/07/01 03:47:22;;;;;;;3.53;2.20;;;;;;;18.60;100.00;100458.81;6470108;23;20043;-76
2023/07/01 03:49:54;;;;;;;4.07;2.20;;;;;;;18.56;100.00;100465.41;6497549;23;20036;-75
2023/07/01 03:52:25;;;;;;;5.43;2.20;;;;;;;18.52;100.00;100466.69;6495968;23;20000;-76
2023/07/01 03:54:57;;;;;;;3.87;2.17;;;;;;;18.62;100.00;100459.47;6493477;23;20004;-77
2023/07/01 03:57:28;;;;;;;4.10;2.30;;;;;;;18.43;100.00;100457.03;6497312;23;20000;-76
2023/07/01 04:00:00;;;;;;;3.80;2.40;;;;;;;18.43;100.00;100449.88;6497901;23;20004;-76
2023/07/01 04:02:31;;;;;;;6.13;1.80;;;;;;;18.47;100.00;100443.31;6496352;23;20093;-76
2023/07/01 04:05:10;;;;;;;3.27;2.23;;;;;;;18.55;100.00;100452.31;6495660;23;20000;-76
2023/07/01 04:07:43;;;;;;;3.33;1.90;;;;;;;18.48;100.00;100449.44;6496014;23;20091;-76
2023/07/01 04:10:16;;;;;;;4.93;2.23;;;;;;;18.29;100.00;100440.69;6495350;23;20421;-77
2023/07/01 04:12:47;;;;;;;6.17;2.50;;;;;;;18.37;100.00;100448.72;6496027;23;20488;-78
2023/07/01 04:15:19;;;;;;;3.67;2.57;;;;;;;18.40;100.00;100441.44;6470130;23;20008;-78
2023/07/01 04:17:50;;;;;;;4.00;2.17;;;;;;;18.28;100.00;100433.72;6467063;23;20126;-77
2023/07/01 04:20:22;;;;;;;3.10;2.13;;;;;;;18.25;100.00;100429.56;6497218;23;20016;-78
2023/07/01 04:22:53;;;;;;;3.30;2.20;;;;;;;18.19;100.00;100429.31;6497509;23;20324;-78
2023/07/01 04:25:24;;;;;;;4.37;2.30;;;;;;;18.22;100.00;100423.72;6495889;23;20014;-78
2023/07/01 04:27:56;;;;;;;3.37;1.87;;;;;;;18.04;100.00;100421.88;6497230;23;20004;-78
2023/07/01 04:30:28;;;;;;;3.20;2.13;;;;;;;17.95;100.00;100414.84;6471753;23;20004;-80
2023/07/01 04:32:59;;;;;;;4.27;2.17;;;;;;;18.02;100.00;100416.75;6499622;23;20054;-77
2023/07/01 04:35:30;;;;;;;3.10;2.00;;;;;;;18.00;100.00;100416.06;6497535;23;20003;-77
2023/07/01 04:38:02;;;;;;;3.50;1.83;;;;;;;18.05;100.00;100415.59;6498812;23;20333;-78
2023/07/01 04:40:33;;;;;;;4.90;1.90;;;;;;;18.10;100.00;100415.97;6497734;23;19996;-78
2023/07/01 04:43:04;;;;;;;2.50;1.80;;;;;;;18.16;100.00;100414.56;6499725;23;20001;-79
2023/07/01 04:45:35;;;;;;;2.37;1.90;;;;;;;18.01;100.00;100411.59;6498202;23;20543;-79
2023/07/01 04:48:07;;;;;;;2.67;1.50;;;;;;;17.87;100.00;100415.59;6472454;23;20011;-79
2023/07/01 04:50:41;;;;;;;2.63;1.83;;;;;;;17.84;100.00;100400.84;6498314;23;20008;-79
2023/07/01 04:53:13;;;;;;;5.17;2.20;;;;;;;17.97;100.00;100407.56;6498080;23;20014;-79
2023/07/01 04:55:44;;;;;;;3.10;1.70;;;;;;;17.98;100.00;100407.41;6497743;23;20468;-79
2023/07/01 04:58:15;;;;;;;3.43;1.70;;;;;;;17.92;100.00;100396.59;6496921;23;20012;-78
2023/07/01 05:00:47;;;;;;;2.63;1.83;;;;;;;17.97;100.00;100405.78;6498020;23;20010;-79
2023/07/01 05:03:18;;;;;;;3.03;1.57;;;;;;;18.01;100.00;100399.16;6472004;23;20050;-79
2023/07/01 05:05:49;;;;;;;2.73;1.60;;;;;;;17.97;100.00;100395.16;6471441;23;20000;-77
2023/07/01 05:08:21;;;;;;;5.87;2.53;;;;;;;18.04;100.00;100389.25;6506518;22;20023;-78
2023/07/01 05:10:52;;;;;;;3.07;1.57;;;;;;;18.09;100.00;100395.78;6498249;23;20008;-78
2023/07/01 05:13:23;;;;;;;2.57;1.50;;;;;;;18.04;100.00;100386.59;6498877;22;20506;-78
2023/07/01 05:15:54;;;;;;;2.47;1.70;;;;;;;18.01;100.00;100380.63;6498197;23;20081;-78
2023/07/01 05:18:26;;;;;;;2.47;1.87;;;;;;;18.00;100.00;100399.31;6497352;23;20007;-78
2023/07/01 05:20:57;;;;;;;4.20;1.60;;;;;;;17.97;100.00;100381.94;6496984;22;20064;-77
2023/07/01 05:23:28;;;;;;;2.83;1.97;;;;;;;18.06;100.00;100388.13;6497379;22;20035;-78
2023/07/01 05:26:00;;;;;;;2.67;1.60;;;;;;;18.00;100.00;100381.63;6498202;23;20000;-78
2023/07/01 05:28:31;;;;;;;7.23;3.00;;;;;;;18.02;100.00;100386.75;6497841;22;20008;-78
2023/07/01 05:31:02;;;;;;;2.40;1.63;;;;;;;18.09;100.00;100387.81;6499180;22;20004;-77
2023/07/01 05:33:34;;;;;;;3.23;1.90;;;;;;;17.90;100.00;100394.09;6498256;22;20003;-78
2023/07/01 05:36:05;;;;;;;4.33;1.77;;;;;;;17.99;100.00;100376.47;6498213;22;20011;-78
2023/07/01 05:38:39;;;;;;;4.70;2.30;;;;;;;18.05;100.00;100386.44;6497014;23;20368;-78
2023/07/01 05:41:10;;;;;;;3.65;1.92;;;;;;;17.93;100.00;100372.59;6496728;23;20054;-78
2023/07/01 05:43:41;;;;;;;2.33;1.50;;;;;;;18.06;100.00;100382.00;6496642;23;20004;-79
2023/07/01 05:46:13;;;;;;;3.67;1.87;;;;;;;17.82;100.00;100352.47;6494572;22;20356;-79
2023/07/01 05:48:44;;;;;;;2.63;1.63;;;;;;;17.93;100.00;100382.38;6519723;22;20606;-79
2023/07/01 05:51:15;;;;;;;3.73;2.00;;;;;;;17.93;100.00;100372.59;6497179;22;20012;-78
2023/07/01 05:53:47;;;;;;;5.17;1.80;;;;;;;17.98;100.00;100380.09;6518899;22;20007;-78
2023/07/01 05:56:18;;;;;;;2.60;1.80;;;;;;;17.96;100.00;100379.44;6498951;22;20440;-78
2023/07/01 05:58:50;;;;;;;5.43;2.20;;;;;;;17.93;100.00;100377.06;6500846;22;20007;-77
2023/07/01 06:01:21;;;;;;;2.17;1.50;;;;;;;17.78;100.00;100359.06;6526299;22;20008;-77
2023/07/01 06:03:53;;;;;;;3.83;1.80;;;;;;;17.85;100.00;100375.19;6501344;23;20008;-77
2023/07/01 06:06:24;;;;;;;3.40;1.97;;;;;;;17.89;100.00;100373.91;6502206;23;20012;-77
2023/07/01 06:08:55;;;;;;;3.20;2.00;;;;;;;17.87;100.00;100374.03;6501676;22;20015;-77
2023/07/01 06:11:27;;;;;;;3.20;1.93;;;;;;;17.75;100.00;100360.19;6473143;23;20004;-77
2023/07/01 06:13:58;;;;;;;2.73;1.70;;;;;;;18.04;100.00;100352.16;6500673;23;20050;-77
2023/07/01 06:16:29;;;;;;;3.33;2.00;;;;;;;18.04;100.00;100358.31;6500514;23;20008;-78
2023/07/01 06:19:01;;;;;;;2.70;1.73;;;;;;;18.13;100.00;100367.16;6499614;23;20051;-77
2023/07/01 06:21:32;;;;;;;3.40;1.77;;;;;;;18.05;100.00;100364.44;6498995;23;20026;-78
2023/07/01 06:24:04;;;;;;;2.23;1.77;;;;;;;18.05;100.00;100353.84;6497475;23;20008;-77
2023/07/01 06:26:35;;;;;;;2.70;1.73;;;;;;;18.16;100.00;100350.97;6498674;23;20004;-78
2023/07/01 06:29:07;;;;;;;3.87;1.70;;;;;;;18.07;100.00;100352.69;6498837;23;20004;-78
2023/07/01 06:31:38;;;;;;;3.13;1.97;;;;;;;18.19;100.00;100363.06;6496179;23;20031;-77
2023/07/01 06:34:15;;;;;;;2.40;1.80;;;;;;;18.29;100.00;100355.88;6498796;23;19996;-77
2023/07/01 06:36:47;;;;;;;2.23;1.53;;;;;;;18.21;100.00;100358.44;6495612;23;20015;-77
2023/07/01 06:39:18;;;;;;;6.33;1.73;;;;;;;18.07;100.00;100336.78;6495864;23;20000;-77
2023/07/01 06:41:49;;;;;;;2.47;1.83;;;;;;;18.20;100.00;100352.34;6496474;23;20346;-78
2023/07/01 06:44:20;;;;;;;2.33;1.40;;;;;;;18.20;100.00;100346.19;6496370;23;20075;-78
2023/07/01 06:46:52;;;;;;;1.83;1.33;;;;;;;18.24;100.00;100348.38;6496117;23;20484;-78
2023/07/01 06:49:23;;;;;;;2.77;1.57;;;;;;;18.26;100.00;100348.22;6495673;23;20031;-78
2023/07/01 06:51:54;;;;;;;2.23;1.33;;;;;;;18.21;100.00;100353.16;6493828;23;20015;-76
2023/07/01 06:54:26;;;;;;;3.63;1.57;;;;;;;18.25;100.00;100346.56;6495228;23;20000;-77
2023/07/01 06:56:57;;;;;;;3.37;1.53;;;;;;;18.14;100.00;100347.63;6495413;23;20004;-77
2023/07/01 06:59:28;;;;;;;2.03;1.30;;;;;;;18.14;100.00;100344.97;6496224;23;19996;-79
2023/07/01 07:01:59;;;;;;;3.33;1.40;;;;;;;18.09;100.00;100356.03;6496421;23;20085;-78
2023/07/01 07:04:31;;;;;;;2.67;1.43;;;;;;;18.09;100.00;100345.41;6495543;23;19996;-78
2023/07/01 07:07:02;;;;;;;3.07;1.40;;;;;;;18.09;100.00;100352.53;6494918;23;20078;-78
2023/07/01 07:09:33;;;;;;;2.40;1.40;;;;;;;18.13;100.00;100345.94;6493842;23;20300;-77
2023/07/01 07:12:05;;;;;;;3.20;1.50;;;;;;;18.21;100.00;100347.84;6495890;23;20007;-77
2023/07/01 07:14:38;;;;;;;4.23;1.70;;;;;;;18.04;100.00;100342.41;6469251;23;20034;-77
2023/07/01 07:17:09;;;;;;;4.40;2.03;;;;;;;18.11;100.00;100339.97;6495793;23;20091;-76
2023/07/01 07:19:41;;;;;;;2.37;1.87;;;;;;;18.20;100.00;100348.84;6495798;23;20043;-78
2023/07/01 07:22:12;;;;;;;3.17;2.03;;;;;;;17.98;100.00;100324.44;6496402;23;20290;-74
2023/07/01 07:24:43;;;;;;;2.07;1.87;;;;;;;18.15;100.00;100338.72;6494473;23;20023;-78
2023/07/01 07:27:15;;;;;;;4.70;2.07;;;;;;;18.13;100.00;100341.50;6496294;23;20027;-77
2023/07/01 07:29:46;;;;;;;2.30;1.40;;;;;;;18.22;100.00;100337.09;6468717;23;20019;-76
2023/07/01 07:32:18;;;;;;;3.30;1.83;;;;;;;18.14;100.00;100329.91;6496833;23;20031;-76
2023/07/01 07:34:49;;;;;;;3.30;1.40;;;;;;;18.13;100.00;100336.19;6495687;23;20071;-78
2023/07/01 07:39:04;;;;;;;3.30;2.00;;;;;;;18.62;100.00;100324.22;5246749;27;20370;-78
2023/07/01 07:41:36;;;;;;;4.13;1.67;;;;;;;18.58;100.00;100320.25;5217616;28;20030;-76
2023/07/01 07:44:07;;;;;;;4.17;1.70;;;;;;;18.77;100.00;100342.22;5218450;28;20034;-74
2023/07/01 07:46:39;;;;;;;3.83;1.93;;;;;;;18.77;100.00;100328.94;5223198;28;20520;-81
2023/07/01 07:49:11;;;;;;;3.47;2.03;;;;;;;18.78;100.00;100332.44;5227864;28;20026;-79
2023/07/01 07:51:42;;;;;;;3.43;2.10;;;;;;;18.64;100.00;100321.41;5222751;28;20059;-74
2023/07/01 07:54:14;;;;;;;2.40;1.60;;;;;;;18.77;100.00;100328.94;5226121;28;20040;-80
2023/07/01 07:56:45;;;;;;;3.10;1.63;;;;;;;18.72;100.00;100324.13;5227366;28;20032;-80
2023/07/01 07:59:16;;;;;;;2.23;1.50;;;;;;;18.84;100.00;100329.16;5226372;28;20079;-78
2023/07/01 08:01:47;;;;;;;6.03;1.70;;;;;;;18.81;100.00;100322.34;5320833;27;20113;-70
2023/07/01 08:04:19;;;;;;;3.53;1.80;;;;;;;18.90;100.00;100317.06;5223252;28;20026;-74
2023/07/01 08:06:50;;;;;;;2.63;1.47;;;;;;;18.88;100.00;100316.38;5217244;28;20064;-75
2023/07/01 08:09:22;;;;;;;1.97;1.23;;;;;;;18.88;100.00;100322.53;5223091;28;20030;-74
2023/07/01 08:11:53;;;;;;;1.57;1.40;;;;;;;18.81;100.00;100322.34;5216448;28;20038;-73
2023/07/01 08:14:28;;;;;;;3.70;1.30;;;;;;;18.98;100.00;100315.28;5213948;28;20396;-73
2023/07/01 08:17:00;;;;;;;2.30;1.47;;;;;;;18.93;100.00;100306.13;5219806;28;20040;-73
2023/07/01 08:19:33;;;;;;;2.40;1.33;;;;;;;18.98;100.00;100309.97;5221015;28;20388;-74
2023/07/01 08:22:04;;;;;;;1.37;1.17;;;;;;;18.98;100.00;100303.81;5221222;28;20029;-74
2023/07/01 08:24:36;;;;;;;1.60;1.10;;;;;;;18.97;100.00;100305.63;5221248;28;20030;-74
2023/07/01 08:27:07;;;;;;;1.90;1.13;;;;;;;19.08;100.00;100317.78;5219411;28;20119;-74
2023/07/01 08:29:38;;;;;;;1.43;1.10;;;;;;;19.15;100.00;100317.19;5224963;28;20278;-74
2023/07/01 08:32:10;;;;;;;2.30;1.13;;;;;;;19.00;100.00;100309.81;5223160;28;20033;-74
2023/07/01 08:34:41;;;;;;;2.63;1.43;;;;;;;19.09;100.00;100308.81;5217843;28;20041;-73
2023/07/01 08:37:12;;;;;;;1.70;0.90;;;;;;;19.09;100.00;100308.81;5219808;28;20038;-73
2023/07/01 08:39:44;;;;;;;1.40;1.30;;;;;;;19.20;100.00;100314.88;5211578;28;20042;-73
2023/07/01 08:42:21;;;;;;;1.73;1.20;;;;;;;19.43;100.00;100314.25;5220219;28;20582;-74
2023/07/01 08:44:53;;;;;;;1.40;1.00;;;;;;;19.25;100.00;100315.22;5215397;28;20399;-73
2023/07/01 08:47:25;;;;;;;0.90;0.60;;;;;;;19.16;100.00;100305.56;5227105;28;20075;-73
2023/07/01 08:50:04;;;;;;;0.63;0.63;;;;;;;19.19;100.00;100299.94;5215705;28;20072;-73
2023/07/01 08:52:44;;;;;;;1.17;1.00;;;;;;;19.36;100.00;100314.06;5213018;28;20079;-72
2023/07/01 08:55:15;;;;;;;1.07;0.80;;;;;;;19.16;100.00;100310.88;5309790;27;20097;-72
2023/07/01 08:57:48;;;;;;;1.40;0.90;;;;;;;19.19;100.00;100306.06;5218437;28;20044;-73
2023/07/01 09:00:19;;;;;;;1.67;0.70;;;;;;;19.20;100.00;100306.91;5315153;27;20049;-73
2023/07/01 09:02:51;;;;;;;0.47;0.47;;;;;;;19.29;100.00;100302.44;5217314;28;20551;-73
2023/07/01 09:05:22;;;;;;;1.27;0.83;;;;;;;19.25;100.00;100307.25;5213145;28;20104;-73
2023/07/01 09:07:53;;;;;;;1.33;0.70;;;;;;;19.30;100.00;100302.28;5216221;28;20033;-73
2023/07/01 09:10:25;;;;;;;0.60;0.60;;;;;;;19.45;100.00;100304.28;5212308;28;20030;-73
2023/07/01 09:13:09;;;;;;;0.90;0.60;;;;;;;19.56;100.00;100303.97;5211924;28;20078;-73
2023/07/01 09:15:49;;;;;;;2.15;0.55;;;;;;;19.58;100.00;100301.97;5220102;28;20555;-73
2023/07/01 09:18:25;;;;;;;1.50;0.60;;;;;;;19.63;100.00;100308.63;5207927;28;20042;-73
2023/07/01 09:20:58;;;;;;;1.03;0.60;;;;;;;19.56;100.00;100306.66;5209000;28;20030;-74
2023/07/01 09:23:31;;;;;;;1.07;0.70;;;;;;;19.43;100.00;100303.63;5211691;28;20042;-75
2023/07/01 09:26:10;;;;;;;0.50;0.50;;;;;;;19.70;100.00;100309.63;5213437;28;20026;-72
2023/07/01 09:28:46;;;;;;;1.23;0.60;;;;;;;19.63;100.00;100298.84;5212878;28;20036;-73
2023/07/01 09:31:17;;;;;;;1.90;0.60;;;;;;;19.61;100.00;100303.47;5213145;28;20022;-73
2023/07/01 09:34:01;;;;;;;0.70;0.70;;;;;;;19.98;100.00;100295.16;5212852;28;20083;-73
2023/07/01 09:36:32;;;;;;;0.70;0.63;;;;;;;19.90;100.00;100296.00;5211909;28;20026;-74
2023/07/01 09:39:05;;;;;;;0.50;0.50;;;;;;;19.86;100.00;100281.41;5210682;28;20030;-73
2023/07/01 09:41:36;;;;;;;1.10;0.70;;;;;;;19.90;100.00;100293.34;5218223;28;20129;-73
2023/07/01 09:44:27;;;;;;;0.93;0.70;;;;;;;20.27;100.00;100284.00;5212404;28;20105;-73
2023/07/01 09:46:58;;;;;;;2.93;0.90;;;;;;;19.99;100.00;100278.22;5212303;28;20117;-73
2023/07/01 09:49:40;;;;;;;1.37;0.77;;;;;;;20.21;100.00;100281.22;5212239;28;20117;-73
2023/07/01 09:52:12;;;;;;;1.33;0.90;;;;;;;20.11;100.00;100282.22;5309863;27;20059;-72
2023/07/01 09:54:44;;;;;;;1.70;0.87;;;;;;;20.05;100.00;100288.22;5211287;28;20065;-73
2023/07/01 09:57:15;;;;;;;0.80;0.73;;;;;;;20.01;100.00;100284.19;5213183;28;20104;-74
2023/07/01 09:59:46;;;;;;;0.90;0.77;;;;;;;20.10;100.00;100287.69;5210689;28;20026;-74
2023/07/01 10:02:18;;;;;;;2.40;0.93;;;;;;;20.00;100.00;100282.53;5263575;28;20495;-74
2023/07/01 10:04:51;;;;;;;1.37;1.10;;;;;;;20.04;100.00;100290.03;5211843;28;20430;-74
2023/07/01 10:07:23;;;;;;;1.10;1.00;;;;;;;20.15;100.00;100280.88;5209604;28;20393;-74
2023/07/01 10:09:54;;;;;;;2.40;0.97;;;;;;;20.16;100.00;100292.38;5207560;28;20113;-74
2023/07/01 10:12:27;;;;;;;2.10;1.00;;;;;;;20.15;100.00;100288.03;5208412;28;20030;-75
2023/07/01 10:14:59;;;;;;;1.60;1.00;;;;;;;20.19;100.00;100274.22;5210009;28;20108;-74
2023/07/01 10:17:50;;;;;;;1.90;1.20;;;;;;;20.44;100.00;100273.31;5209129;28;20170;-74
2023/07/01 10:20:30;;;;;;;1.20;1.03;;;;;;;20.38;100.00;100284.66;5210203;28;20032;-74
2023/07/01 10:23:05;;;;;;;1.87;1.30;;;;;;;20.30;100.00;100278.34;5194759;28;20058;-73
2023/07/01 10:25:39;;;;;;;1.70;1.20;;;;;;;20.26;100.00;100279.72;5205977;28;20487;-75
2023/07/01 10:28:11;;;;;;;1.43;1.33;;;;;;;20.29;100.00;100266.06;5203815;28;20041;-75
2023/07/01 10:30:42;;;;;;;1.83;1.50;;;;;;;20.31;100.00;100277.38;5206983;28;20022;-75
2023/07/01 10:33:39;;;;;;;1.77;1.37;;;;;;;20.57;100.00;100272.78;5208188;28;20025;-73
2023/07/01 10:36:13;;;;;;;2.00;1.50;;;;;;;20.31;100.00;100266.72;5302406;27;20022;-72
2023/07/01 10:38:45;;;;;;;1.67;1.38;;;;;;;20.47;100.00;100267.69;5202951;28;20038;-71
2023/07/01 10:41:52;;;;;;;1.93;1.60;;;;;;;20.76;100.00;100271.53;5204177;28;20025;-72
2023/07/01 10:44:24;;;;;;;2.00;1.80;;;;;;;20.62;100.00;100274.91;5203630;28;20456;-73
2023/07/01 10:47:14;;;;;;;2.00;1.80;;;;;;;20.86;100.00;100260.66;5219660;28;20068;-73
2023/07/01 10:50:03;;;;;;;2.77;2.07;;;;;;;20.97;100.00;100274.63;5242939;28;20018;-73
2023/07/01 10:53:13;;;;;;;3.37;2.20;;;;;;;21.11;100.00;100251.75;5207460;28;20453;-73
2023/07/01 10:55:47;;;;;;;3.63;2.13;;;;;;;20.91;100.00;100270.78;5264235;28;20495;-73
2023/07/01 10:58:23;;;;;;;2.67;1.93;;;;;;;20.89;100.00;100270.16;5253811;28;20040;-73
2023/07/01 11:00:56;;;;;;;2.30;2.07;;;;;;;20.91;100.00;100262.81;5222705;28;20038;-74
2023/07/01 11:03:37;;;;;;;4.67;2.47;;;;;;;21.07;100.00;100267.25;5233534;28;20034;-76
2023/07/01 11:06:12;;;;;;;2.80;2.40;;;;;;;21.10;100.00;100258.09;5203649;28;20121;-77
2023/07/01 11:08:47;;;;;;;2.60;2.40;;;;;;;21.35;100.00;100265.88;5202379;28;20024;-76
2023/07/01 11:11:24;;;;;;;2.93;2.63;;;;;;;21.39;100.00;100267.19;5209309;28;20094;-75
2023/07/01 11:13:58;;;;;;;4.13;2.67;;;;;;;21.46;100.00;100254.81;5211471;28;20092;-75
2023/07/01 11:16:30;;;;;;;3.17;2.15;;;;;;;21.57;100.00;100256.25;5234336;28;20027;-77
2023/07/01 11:19:06;;;;;;;2.57;2.37;;;;;;;21.81;100.00;100261.56;5221765;28;20034;-75
2023/07/01 11:21:38;;;;;;;3.03;2.50;;;;;;;21.86;100.00;100264.50;5238459;28;20433;-75
2023/07/01 11:24:10;;;;;;;3.17;2.87;;;;;;;22.06;100.00;100256.00;5209800;28;20053;-77
2023/07/01 11:26:42;;;;;;;4.97;2.53;;;;;;;21.95;100.00;100252.75;5210819;28;20078;-77
2023/07/01 11:29:18;;;;;;;3.67;3.10;;;;;;;22.05;100.00;100252.50;5208545;28;20114;-77
2023/07/01 11:31:59;;;;;;;2.50;2.30;;;;;;;22.20;100.00;100255.16;5233977;28;20036;-75
2023/07/01 11:34:31;;;;;;;4.67;2.23;;;;;;;22.14;100.00;100255.06;5204587;28;20075;-76
2023/07/01 11:37:02;;;;;;;2.13;1.93;;;;;;;22.20;100.00;100249.00;5214899;28;20046;-74
2023/07/01 11:39:43;;;;;;;2.30;2.10;;;;;;;22.57;100.00;100244.56;5206473;28;20026;-72
2023/07/01 11:42:14;;;;;;;2.00;1.77;;;;;;;22.55;100.00;100251.09;5198875;28;20018;-70
2023/07/01 11:44:46;;;;;;;2.47;1.80;;;;;;;22.53;100.00;100242.44;5208526;28;20037;-70
2023/07/01 11:47:17;;;;;;;2.23;1.90;;;;;;;22.55;100.00;100238.56;5235489;28;20046;-71
2023/07/01 11:49:49;;;;;;;4.13;1.63;;;;;;;22.74;100.00;100248.88;5207567;28;20022;-69